createdAt,value
2018-04-25T00:00:37.695Z,3.67
2018-04-25T00:03:05.201Z,3.57
2018-04-25T00:05:33.523Z,3.50
2018-04-25T00:08:01.790Z,3.50
2018-04-25T00:10:29.331Z,3.63
2018-04-25T00:12:56.838Z,3.47
2018-04-25T00:15:24.346Z,3.23
2018-04-25T00:17:51.866Z,3.20
2018-04-25T00:20:19.402Z,3.47
2018-04-25T00:22:46.927Z,2.97
2018-04-25T00:25:15.201Z,3.20
2018-04-25T00:27:42.758Z,3.50
2018-04-25T00:30:10.253Z,3.67
2018-04-25T00:32:37.778Z,3.27
2018-04-25T00:35:05.287Z,2.90
2018-04-25T00:37:32.809Z,2.80
2018-04-25T00:40:00.318Z,3.27
2018-04-25T00:42:27.841Z,3.33
2018-04-25T00:44:55.348Z,3.03
2018-04-25T00:47:22.873Z,2.73
2018-04-25T00:49:50.921Z,3.33
2018-04-25T00:52:18.450Z,3.10
2018-04-25T00:54:46.198Z,3.30
2018-04-25T00:57:13.725Z,3.07
2018-04-25T00:59:41.274Z,3.20
2018-04-25T01:02:08.773Z,3.37
2018-04-25T01:04:36.298Z,3.00
2018-04-25T01:07:03.815Z,3.10
2018-04-25T01:09:31.341Z,3.00
2018-04-25T01:11:58.974Z,3.03
2018-04-25T01:14:26.415Z,3.00
2018-04-25T01:16:53.918Z,3.00
2018-04-25T01:19:22.273Z,3.13
2018-04-25T01:21:50.591Z,3.20
2018-04-25T01:24:18.881Z,3.37
2018-04-25T01:26:52.769Z,3.53
2018-04-25T01:29:23.911Z,3.10
2018-04-25T01:31:53.137Z,3.23
2018-04-25T01:34:34.371Z,3.30
2018-04-25T01:37:01.876Z,3.20
2018-04-25T01:39:35.202Z,3.37
2018-04-25T01:45:01.661Z,3.00
2018-04-25T01:47:32.841Z,3.07
2018-04-25T01:50:12.310Z,2.67
2018-04-25T01:52:51.539Z,2.93
2018-04-25T01:55:31.100Z,3.20
2018-04-25T01:58:10.795Z,2.93
2018-04-25T02:00:50.104Z,3.17
2018-04-25T02:03:17.651Z,3.10
2018-04-25T02:05:45.177Z,3.10
2018-04-25T02:08:13.918Z,2.87
2018-04-25T02:10:41.743Z,2.83
2018-04-25T02:13:10.046Z,2.70
2018-04-25T02:15:38.313Z,2.60
2018-04-25T02:18:06.611Z,2.77
2018-04-25T02:20:34.924Z,2.60
2018-04-25T02:23:02.450Z,3.53
2018-04-25T02:25:30.098Z,3.23
2018-04-25T02:27:57.621Z,3.07
2018-04-25T02:30:25.891Z,3.30
2018-04-25T02:32:53.417Z,3.27
2018-04-25T02:35:20.924Z,3.10
2018-04-25T02:37:48.454Z,3.20
2018-04-25T02:40:15.971Z,3.00
2018-04-25T02:42:43.501Z,3.10
2018-04-25T02:45:11.002Z,3.47
2018-04-25T02:47:38.534Z,3.30
2018-04-25T02:50:06.092Z,3.57
2018-04-25T02:52:33.598Z,3.47
2018-04-25T02:55:01.732Z,3.40
2018-04-25T02:57:29.260Z,3.60
2018-04-25T02:59:57.122Z,3.33
2018-04-25T03:02:24.647Z,3.33
2018-04-25T03:04:52.945Z,3.10
2018-04-25T03:07:20.455Z,2.90
2018-04-25T03:09:47.990Z,3.37
2018-04-25T03:12:15.503Z,3.40
2018-04-25T03:14:43.055Z,3.43
2018-04-25T03:17:10.561Z,3.20
2018-04-25T03:19:38.083Z,3.50
2018-04-25T03:22:05.590Z,3.67
2018-04-25T03:24:33.118Z,3.43
2018-04-25T03:27:00.627Z,3.40
2018-04-25T03:29:28.157Z,3.63
2018-04-25T03:31:55.670Z,3.67
2018-04-25T03:34:23.175Z,3.20
2018-04-25T03:36:50.702Z,3.57
2018-04-25T03:39:18.207Z,2.93
2018-04-25T03:41:46.511Z,3.50
2018-04-25T03:44:14.022Z,3.77
2018-04-25T03:46:41.559Z,3.60
2018-04-25T03:49:09.090Z,3.50
2018-04-25T03:51:36.621Z,3.50
2018-04-25T03:54:04.891Z,3.60
2018-04-25T03:56:32.433Z,3.70
2018-04-25T03:59:00.793Z,3.73
2018-04-25T04:01:29.018Z,4.23
2018-04-25T04:03:57.294Z,3.63
2018-04-25T04:06:24.844Z,4.40
2018-04-25T04:08:52.373Z,4.57
2018-04-25T04:11:19.954Z,4.40
2018-04-25T04:13:47.463Z,4.43
2018-04-25T04:16:15.009Z,3.67
2018-04-25T04:18:42.549Z,4.47
2018-04-25T04:21:10.062Z,4.60
2018-04-25T04:23:38.089Z,4.90
2018-04-25T04:26:06.374Z,4.87
2018-04-25T04:28:35.478Z,4.90
2018-04-25T04:31:03.751Z,4.83
2018-04-25T04:33:32.047Z,5.30
2018-04-25T04:35:59.919Z,5.50
2018-04-25T04:38:27.488Z,5.47
2018-04-25T04:40:54.990Z,5.90
2018-04-25T04:43:23.056Z,5.97
2018-04-25T04:45:51.327Z,6.03
2018-04-25T04:48:18.850Z,5.53
2018-04-25T04:50:46.362Z,5.77
2018-04-25T04:53:13.980Z,5.33
2018-04-25T04:55:41.486Z,5.43
2018-04-25T04:58:09.027Z,5.63
2018-04-25T05:00:36.534Z,5.70
2018-04-25T05:03:04.121Z,5.33
2018-04-25T05:05:31.642Z,6.20
2018-04-25T05:07:59.149Z,5.60
2018-04-25T05:10:26.674Z,6.20
2018-04-25T05:12:54.178Z,6.00
2018-04-25T05:15:21.706Z,5.73
2018-04-25T05:17:49.237Z,5.13
2018-04-25T05:20:16.773Z,6.43
2018-04-25T05:22:44.280Z,6.03
2018-04-25T05:25:11.806Z,5.57
2018-04-25T05:27:39.418Z,5.63
2018-04-25T05:30:07.018Z,5.33
2018-04-25T05:32:35.305Z,6.07
2018-04-25T05:35:03.610Z,6.23
2018-04-25T05:37:31.113Z,5.73
2018-04-25T05:39:58.643Z,5.80
2018-04-25T05:42:26.175Z,5.87
2018-04-25T05:44:54.598Z,5.00
2018-04-25T05:47:22.957Z,4.70
2018-04-25T05:49:50.410Z,5.00
2018-04-25T05:52:17.929Z,4.90
2018-04-25T05:54:46.207Z,4.67
2018-04-25T05:57:14.531Z,4.13
2018-04-25T05:59:42.034Z,3.93
2018-04-25T06:02:09.569Z,4.40
2018-04-25T06:04:37.134Z,4.10
2018-04-25T06:07:04.669Z,4.73
2018-04-25T06:09:32.962Z,4.97
2018-04-25T06:12:01.258Z,5.13
2018-04-25T06:14:29.533Z,5.33
2018-04-25T06:16:57.057Z,5.60
2018-04-25T06:19:24.561Z,5.67
2018-04-25T06:21:52.181Z,5.40
2018-04-25T06:24:19.697Z,5.57
2018-04-25T06:26:47.965Z,5.57
2018-04-25T06:29:15.492Z,6.20
2018-04-25T06:31:43.758Z,5.23
2018-04-25T06:34:11.290Z,5.93
2018-04-25T06:36:38.794Z,5.27
2018-04-25T06:39:06.318Z,5.67
2018-04-25T06:41:33.823Z,5.43
2018-04-25T06:44:01.355Z,4.47
2018-04-25T06:46:28.867Z,3.40
2018-04-25T06:48:56.390Z,3.23
2018-04-25T06:51:23.897Z,3.33
2018-04-25T06:53:51.427Z,3.10
2018-04-25T06:56:18.934Z,3.43
2018-04-25T06:58:46.461Z,2.70
2018-04-25T07:01:13.961Z,2.57
2018-04-25T07:03:41.788Z,2.60
2018-04-25T07:06:09.291Z,3.07
2018-04-25T07:08:36.793Z,2.97
2018-04-25T07:11:04.323Z,3.03
2018-04-25T07:13:31.842Z,3.50
2018-04-25T07:16:00.139Z,3.47
2018-04-25T07:18:27.646Z,2.90
2018-04-25T07:20:55.175Z,2.63
2018-04-25T07:23:22.689Z,2.00
2018-04-25T07:25:50.211Z,2.50
2018-04-25T07:28:18.486Z,1.70
2018-04-25T07:30:46.005Z,1.97
2018-04-25T07:33:15.121Z,1.20
2018-04-25T07:35:43.412Z,1.63
2018-04-25T07:38:10.925Z,1.33
2018-04-25T07:40:38.450Z,1.50
2018-04-25T07:43:05.977Z,1.60
2018-04-25T07:45:34.245Z,1.73
2018-04-25T07:48:02.431Z,1.93
2018-04-25T07:50:29.929Z,1.40
2018-04-25T07:52:57.474Z,1.73
2018-04-25T07:55:24.977Z,2.00
2018-04-25T07:57:52.497Z,2.10
2018-04-25T08:00:20.008Z,2.47
2018-04-25T08:02:47.512Z,2.40
2018-04-25T08:05:15.811Z,2.40
2018-04-25T08:07:43.344Z,2.40
2018-04-25T08:10:10.870Z,2.20
2018-04-25T08:12:50.114Z,2.30
2018-04-25T08:15:29.517Z,2.27
2018-04-25T08:18:08.838Z,2.67
2018-04-25T08:20:56.214Z,2.57
2018-04-25T08:23:24.476Z,2.50
2018-04-25T08:25:51.997Z,2.30
2018-04-25T08:28:19.526Z,1.77
2018-04-25T08:30:47.382Z,2.00
2018-04-25T08:33:14.890Z,2.07
2018-04-25T08:35:42.406Z,2.00
2018-04-25T08:38:09.931Z,2.07
2018-04-25T08:40:38.209Z,1.63
2018-04-25T08:43:05.745Z,2.10
2018-04-25T08:45:33.817Z,1.80
2018-04-25T08:48:01.388Z,1.50
2018-04-25T08:50:28.905Z,1.57
2018-04-25T08:52:57.182Z,1.70
2018-04-25T08:55:25.017Z,1.50
2018-04-25T08:57:52.574Z,1.40
2018-04-25T09:00:20.104Z,1.90
2018-04-25T09:02:48.009Z,1.77
2018-04-25T09:05:15.546Z,1.90
2018-04-25T09:07:43.058Z,2.00
2018-04-25T09:10:10.593Z,2.20
2018-04-25T09:12:38.126Z,2.50
2018-04-25T09:15:05.627Z,2.43
2018-04-25T09:17:33.158Z,2.57
2018-04-25T09:20:00.678Z,2.43
2018-04-25T09:22:28.473Z,2.73
2018-04-25T09:24:56.771Z,2.43
2018-04-25T09:27:25.045Z,2.60
2018-04-25T09:29:53.343Z,2.83
2018-04-25T09:32:21.747Z,2.97
2018-04-25T09:34:49.278Z,3.17
2018-04-25T09:37:18.181Z,3.20
2018-04-25T09:39:45.714Z,3.20
2018-04-25T09:42:13.221Z,3.17
2018-04-25T09:44:40.744Z,2.83
2018-04-25T09:47:08.307Z,2.50
2018-04-25T09:49:35.814Z,2.87
2018-04-25T09:52:03.374Z,2.70
2018-04-25T09:54:30.883Z,3.00
2018-04-25T09:56:58.412Z,3.00
2018-04-25T09:59:25.917Z,3.20
2018-04-25T10:01:59.159Z,3.87
2018-04-25T10:04:26.667Z,3.63
2018-04-25T10:06:54.175Z,3.97
2018-04-25T10:09:22.471Z,3.70
2018-04-25T10:11:50.750Z,4.10
2018-04-25T10:14:18.295Z,4.07
2018-04-25T10:16:45.825Z,4.43
2018-04-25T10:19:13.333Z,4.60
2018-04-25T10:21:40.896Z,3.77
2018-04-25T10:24:08.414Z,4.03
2018-04-25T10:26:36.705Z,4.10
2018-04-25T10:29:04.982Z,3.93
2018-04-25T10:31:33.258Z,3.40
2018-04-25T10:34:00.787Z,3.70
2018-04-25T10:36:28.293Z,3.30
2018-04-25T10:38:55.871Z,3.00
2018-04-25T10:41:24.295Z,3.17
2018-04-25T10:44:02.236Z,3.00
2018-04-25T10:46:29.754Z,2.67
2018-04-25T10:49:08.003Z,2.90
2018-04-25T10:51:35.513Z,3.07
2018-04-25T10:54:03.023Z,3.10
2018-04-25T10:56:31.640Z,3.33
2018-04-25T10:58:59.142Z,2.90
2018-04-25T11:01:26.649Z,3.10
2018-04-25T11:03:54.401Z,3.13
2018-04-25T11:06:22.028Z,3.10
2018-04-25T11:08:49.549Z,3.40
2018-04-25T11:11:17.088Z,2.90
2018-04-25T11:13:44.598Z,2.90
2018-04-25T11:16:12.118Z,2.80
2018-04-25T11:18:39.661Z,3.40
2018-04-25T11:21:07.175Z,3.10
2018-04-25T11:23:34.726Z,3.00
2018-04-25T11:26:02.238Z,3.33
2018-04-25T11:28:30.614Z,3.53
2018-04-25T11:30:58.134Z,3.00
2018-04-25T11:33:26.409Z,2.60
2018-04-25T11:35:53.946Z,2.70
2018-04-25T11:38:22.214Z,2.43
2018-04-25T11:40:49.729Z,2.90
2018-04-25T11:43:17.257Z,3.13
2018-04-25T11:45:44.761Z,2.80
2018-04-25T11:48:12.294Z,2.90
2018-04-25T11:50:39.807Z,3.23
2018-04-25T11:53:07.345Z,3.00
2018-04-25T11:55:34.850Z,3.30
2018-04-25T11:58:02.918Z,3.27
2018-04-25T12:00:31.214Z,3.73
2018-04-25T12:02:58.719Z,3.63
2018-04-25T12:05:27.367Z,3.97
2018-04-25T12:07:55.017Z,3.70
2018-04-25T12:10:22.521Z,4.03
2018-04-25T12:12:50.061Z,4.47
2018-04-25T12:15:17.602Z,4.20
2018-04-25T12:17:45.133Z,4.50
2018-04-25T12:20:12.662Z,3.87
2018-04-25T12:22:40.167Z,4.10
2018-04-25T12:25:07.697Z,3.53
2018-04-25T12:27:35.205Z,3.67
2018-04-25T12:30:02.734Z,3.93
2018-04-25T12:32:30.318Z,4.10
2018-04-25T12:34:57.824Z,4.33
2018-04-25T12:37:25.433Z,4.50
2018-04-25T12:39:52.901Z,4.70
2018-04-25T12:42:21.174Z,5.43
2018-04-25T12:44:48.682Z,5.00
2018-04-25T12:47:16.302Z,5.30
2018-04-25T12:49:44.511Z,4.33
2018-04-25T12:52:12.797Z,3.60
2018-04-25T12:54:40.302Z,3.80
2018-04-25T12:57:08.086Z,3.97
2018-04-25T12:59:35.589Z,4.23
2018-04-25T13:02:03.093Z,4.00
2018-04-25T13:04:31.381Z,3.50
2018-04-25T13:06:59.646Z,3.27
2018-04-25T13:09:27.175Z,3.77
2018-04-25T13:11:54.678Z,3.63
2018-04-25T13:14:22.210Z,3.50
2018-04-25T13:16:49.713Z,3.90
2018-04-25T13:19:17.217Z,3.70
2018-04-25T13:21:44.745Z,3.77
2018-04-25T13:24:12.254Z,3.17
2018-04-25T13:26:40.550Z,3.10
2018-04-25T13:29:08.820Z,3.27
2018-04-25T13:31:36.331Z,3.10
2018-04-25T13:34:03.854Z,3.00
2018-04-25T13:36:31.365Z,3.80
2018-04-25T13:38:58.899Z,3.57
2018-04-25T13:41:26.404Z,3.40
2018-04-25T13:43:53.938Z,3.47
2018-04-25T13:46:21.479Z,3.70
2018-04-25T13:48:49.008Z,4.00
2018-04-25T13:51:16.533Z,3.80
2018-04-25T13:53:44.067Z,3.87
2018-04-25T13:56:11.574Z,3.27
2018-04-25T13:58:39.081Z,3.30
2018-04-25T14:01:07.374Z,3.03
2018-04-25T14:03:35.649Z,3.03
2018-04-25T14:06:03.950Z,3.50
2018-04-25T14:08:31.470Z,3.57
2018-04-25T14:10:59.000Z,3.57
2018-04-25T14:13:26.502Z,3.10
2018-04-25T14:15:54.046Z,3.13
2018-04-25T14:18:21.557Z,3.33
2018-04-25T14:20:49.074Z,3.40
2018-04-25T14:23:17.221Z,3.37
2018-04-25T14:25:44.738Z,3.73
2018-04-25T14:28:12.278Z,3.50
2018-04-25T14:30:40.554Z,3.77
2018-04-25T14:33:08.064Z,3.77
2018-04-25T14:35:35.994Z,3.70
2018-04-25T14:38:03.521Z,3.73
2018-04-25T14:40:31.388Z,3.53
2018-04-25T14:42:58.895Z,3.87
2018-04-25T14:45:26.404Z,3.60
2018-04-25T14:47:53.950Z,4.30
2018-04-25T14:50:21.496Z,3.90
2018-04-25T14:52:49.034Z,3.90
2018-04-25T14:55:17.303Z,4.07
2018-04-25T14:57:44.806Z,3.87
2018-04-25T15:00:12.334Z,3.50
2018-04-25T15:02:39.842Z,4.10
2018-04-25T15:05:07.438Z,4.07
2018-04-25T15:07:34.948Z,4.20
2018-04-25T15:10:02.461Z,3.77
2018-04-25T15:12:29.994Z,4.07
2018-04-25T15:14:57.497Z,3.97
2018-04-25T15:17:25.019Z,3.97
2018-04-25T15:19:52.574Z,3.90
2018-04-25T15:22:20.090Z,3.67
2018-04-25T15:24:48.364Z,4.30
2018-04-25T15:27:15.907Z,3.87
2018-04-25T15:29:43.458Z,3.90
2018-04-25T15:32:10.970Z,3.50
2018-04-25T15:34:38.510Z,3.70
2018-04-25T15:37:06.776Z,3.93
2018-04-25T15:39:34.290Z,3.53
2018-04-25T15:42:01.830Z,3.30
2018-04-25T15:44:29.378Z,3.83
2018-04-25T15:46:56.962Z,3.63
2018-04-25T15:49:24.824Z,3.40
2018-04-25T15:51:52.388Z,3.63
2018-04-25T15:54:19.902Z,3.53
2018-04-25T15:56:47.423Z,3.67
2018-04-25T15:59:15.707Z,3.43
2018-04-25T16:01:44.002Z,3.87
2018-04-25T16:04:12.690Z,4.00
2018-04-25T16:06:40.238Z,3.67
2018-04-25T16:09:07.766Z,3.47
2018-04-25T16:11:35.280Z,4.13
2018-04-25T16:14:02.818Z,3.57
2018-04-25T16:16:30.326Z,2.90
2018-04-25T16:18:57.840Z,3.20
2018-04-25T16:21:25.361Z,2.60
2018-04-25T16:23:52.868Z,2.10
2018-04-25T16:26:21.190Z,2.20
2018-04-25T16:28:48.694Z,2.00
2018-04-25T16:31:16.219Z,2.40
2018-04-25T16:33:43.753Z,2.40
2018-04-25T16:36:12.073Z,2.40
2018-04-25T16:38:40.759Z,1.93
2018-04-25T16:41:08.268Z,1.90
2018-04-25T16:43:35.821Z,2.00
2018-04-25T16:46:03.346Z,2.40
2018-04-25T16:48:31.002Z,2.10
2018-04-25T16:50:58.601Z,1.90
2018-04-25T16:53:26.869Z,2.20
2018-04-25T16:55:54.381Z,2.07
2018-04-25T16:58:21.918Z,1.70
2018-04-25T17:00:49.618Z,2.03
2018-04-25T17:03:17.151Z,2.00
2018-04-25T17:05:44.655Z,1.90
2018-04-25T17:08:12.950Z,1.77
2018-04-25T17:10:40.449Z,1.90
2018-04-25T17:13:07.949Z,2.10
2018-04-25T17:15:35.489Z,2.00
2018-04-25T17:18:02.994Z,1.77
2018-04-25T17:20:30.570Z,2.00
2018-04-25T17:22:58.086Z,2.20
2018-04-25T17:25:25.613Z,2.00
2018-04-25T17:27:53.883Z,2.00
2018-04-25T17:30:21.414Z,1.70
2018-04-25T17:32:48.984Z,1.87
2018-04-25T17:35:16.437Z,2.30
2018-04-25T17:37:44.790Z,2.53
2018-04-25T17:40:12.405Z,3.23
2018-04-25T17:42:39.997Z,3.70
2018-04-25T17:45:08.239Z,3.53
2018-04-25T17:47:36.533Z,3.70
2018-04-25T17:50:04.941Z,3.47
2018-04-25T17:52:32.470Z,4.20
2018-04-25T17:54:59.978Z,3.53
2018-04-25T17:57:27.504Z,3.50
2018-04-25T17:59:55.130Z,3.93
2018-04-25T18:02:23.315Z,3.57
2018-04-25T18:04:50.843Z,4.20
2018-04-25T18:07:18.345Z,3.80
2018-04-25T18:09:45.985Z,3.80
2018-04-25T18:12:13.491Z,3.80
2018-04-25T18:14:41.045Z,4.27
2018-04-25T18:17:09.340Z,3.83
2018-04-25T18:19:37.630Z,3.83
2018-04-25T18:22:05.907Z,4.40
2018-04-25T18:24:33.413Z,3.73
2018-04-25T18:27:00.963Z,4.30
2018-04-25T18:29:28.501Z,4.60
2018-04-25T18:31:56.027Z,4.57
2018-04-25T18:34:23.538Z,3.87
2018-04-25T18:36:51.096Z,5.37
2018-04-25T18:39:18.611Z,4.10
2018-04-25T18:41:46.145Z,4.50
2018-04-25T18:44:13.665Z,4.43
2018-04-25T18:46:41.192Z,3.60
2018-04-25T18:49:08.728Z,3.93
2018-04-25T18:51:36.244Z,4.40
2018-04-25T18:54:03.793Z,3.80
2018-04-25T18:56:31.353Z,4.77
2018-04-25T18:58:58.895Z,4.10
2018-04-25T19:01:26.459Z,4.10
2018-04-25T19:03:54.018Z,3.90
2018-04-25T19:06:21.603Z,3.80
2018-04-25T19:08:49.134Z,2.87
2018-04-25T19:11:16.704Z,3.20
2018-04-25T19:13:44.251Z,3.00
2018-04-25T19:16:11.797Z,3.10
2018-04-25T19:18:39.306Z,3.13
2018-04-25T19:21:06.853Z,3.00
2018-04-25T19:23:34.363Z,2.80
2018-04-25T19:26:02.096Z,3.20
2018-04-25T19:28:29.711Z,2.80
2018-04-25T19:30:57.218Z,2.70
2018-04-25T19:33:25.510Z,3.23
2018-04-25T19:35:53.083Z,2.97
2018-04-25T19:38:20.655Z,2.80
2018-04-25T19:40:48.567Z,3.10
2018-04-25T19:43:16.090Z,2.57
2018-04-25T19:45:43.621Z,2.50
2018-04-25T19:48:11.154Z,2.80
2018-04-25T19:50:38.658Z,2.70
2018-04-25T19:53:06.200Z,2.87
2018-04-25T19:55:33.714Z,3.17
2018-04-25T19:58:01.238Z,2.50
2018-04-25T20:00:28.789Z,3.27
2018-04-25T20:02:56.293Z,2.87
2018-04-25T20:05:23.851Z,2.70
2018-04-25T20:07:51.457Z,2.47
2018-04-25T20:10:19.045Z,2.40
2018-04-25T20:12:46.590Z,2.67
2018-04-25T20:15:14.403Z,2.00
2018-04-25T20:17:42.712Z,2.00
2018-04-25T20:20:10.379Z,2.50
2018-04-25T20:22:37.866Z,2.20
2018-04-25T20:25:05.430Z,2.13
2018-04-25T20:27:34.281Z,2.07
2018-04-25T20:30:01.786Z,2.10
2018-04-25T20:32:30.088Z,2.37
2018-04-25T20:34:57.593Z,2.37
2018-04-25T20:37:25.098Z,2.20
2018-04-25T20:39:53.385Z,2.60
2018-04-25T20:42:20.897Z,1.70
2018-04-25T20:44:48.436Z,2.43
2018-04-25T20:47:16.791Z,1.70
2018-04-25T20:49:44.274Z,1.97
2018-04-25T20:52:11.784Z,2.03
2018-04-25T20:54:39.286Z,1.50
2018-04-25T20:57:06.813Z,1.80
2018-04-25T20:59:34.322Z,1.70
2018-04-25T21:02:01.850Z,1.40
2018-04-25T21:04:29.354Z,1.43
2018-04-25T21:06:56.883Z,1.17
2018-04-25T21:09:25.159Z,0.77
2018-04-25T21:11:52.695Z,1.37
2018-04-25T21:14:20.234Z,1.23
2018-04-25T21:16:47.747Z,1.30
2018-04-25T21:19:15.271Z,1.10
2018-04-25T21:21:42.779Z,1.07
2018-04-25T21:24:10.311Z,1.00
2018-04-25T21:26:37.817Z,0.90
2018-04-25T21:29:05.331Z,0.83
2018-04-25T21:31:33.618Z,1.17
2018-04-25T21:34:01.888Z,0.90
2018-04-25T21:36:29.411Z,1.07
2018-04-25T21:38:56.913Z,0.87
2018-04-25T21:41:24.442Z,1.00
2018-04-25T21:43:51.956Z,0.90
2018-04-25T21:46:19.458Z,0.80
2018-04-25T21:48:47.749Z,0.73
2018-04-25T21:51:16.082Z,0.77
2018-04-25T21:53:44.337Z,0.63
2018-04-25T21:56:11.870Z,0.93
2018-04-25T21:58:39.404Z,0.73
2018-04-25T22:01:06.915Z,0.97
2018-04-25T22:03:34.453Z,1.00
2018-04-25T22:06:01.981Z,1.07
2018-04-25T22:08:30.254Z,0.93
2018-04-25T22:10:57.787Z,0.90
2018-04-25T22:13:26.096Z,0.70
2018-04-25T22:15:53.635Z,0.83
2018-04-25T22:18:21.138Z,1.10
2018-04-25T22:20:48.646Z,0.67
2018-04-25T22:23:16.943Z,0.90
2018-04-25T22:25:44.453Z,0.70
2018-04-25T22:28:11.981Z,1.00
2018-04-25T22:30:39.542Z,1.00
2018-04-25T22:33:07.841Z,1.07
2018-04-25T22:35:35.345Z,0.80
2018-04-25T22:38:03.853Z,0.77
2018-04-25T22:40:31.382Z,0.70
2018-04-25T22:42:58.893Z,0.70
2018-04-25T22:45:26.421Z,0.67
2018-04-25T22:47:53.926Z,1.07
2018-04-25T22:50:21.753Z,0.80
2018-04-25T22:52:49.273Z,0.83
2018-04-25T22:55:16.773Z,0.97
2018-04-25T22:57:44.318Z,1.00
2018-04-25T23:00:11.822Z,0.90
2018-04-25T23:02:40.115Z,0.97
2018-04-25T23:05:08.386Z,0.90
2018-04-25T23:07:35.921Z,1.00
2018-04-25T23:10:03.427Z,1.30
2018-04-25T23:12:30.931Z,0.93
2018-04-25T23:14:58.446Z,0.77
2018-04-25T23:17:25.942Z,0.63
2018-04-25T23:19:53.462Z,0.63
2018-04-25T23:22:20.963Z,1.17
2018-04-25T23:24:48.505Z,0.93
2018-04-25T23:27:16.005Z,0.70
2018-04-25T23:29:43.507Z,0.57
2018-04-25T23:32:11.793Z,1.00
2018-04-25T23:34:40.058Z,0.97
2018-04-25T23:37:07.577Z,1.00
2018-04-25T23:39:35.082Z,0.70
2018-04-25T23:42:02.626Z,0.70
2018-04-25T23:44:30.126Z,0.90
2018-04-25T23:46:57.623Z,0.60
2018-04-25T23:49:25.942Z,0.50
2018-04-25T23:51:53.445Z,0.60
2018-04-25T23:54:20.965Z,0.80
2018-04-25T23:56:49.241Z,0.70
2018-04-25T23:59:17.578Z,0.73
